sensor_id;sensor_type;location;lat;lon;timestamp;P1;durP1;ratioP1;P2;durP2;ratioP2
49824;SDS011;35714;55.708;37.478;2022-08-01T00:00:11;6.22;;;1.58;;
49824;SDS011;35714;55.708;37.478;2022-08-01T00:02:37;5.85;;;2.00;;
49824;SDS011;35714;55.708;37.478;2022-08-01T00:05:06;4.85;;;2.05;;
49824;SDS011;35714;55.708;37.478;2022-08-01T00:07:32;8.82;;;1.70;;
49824;SDS011;35714;55.708;37.478;2022-08-01T00:09:58;7.88;;;1.98;;
49824;SDS011;35714;55.708;37.478;2022-08-01T00:12:24;7.72;;;2.42;;
49824;SDS011;35714;55.708;37.478;2022-08-01T00:14:49;7.43;;;2.20;;
49824;SDS011;35714;55.708;37.478;2022-08-01T00:17:15;6.38;;;2.53;;
49824;SDS011;35714;55.708;37.478;2022-08-01T00:19:40;9.20;;;2.33;;
49824;SDS011;35714;55.708;37.478;2022-08-01T00:22:06;7.40;;;1.80;;
49824;SDS011;35714;55.708;37.478;2022-08-01T00:24:32;5.90;;;1.83;;
49824;SDS011;35714;55.708;37.478;2022-08-01T00:26:57;9.45;;;1.92;;
49824;SDS011;35714;55.708;37.478;2022-08-01T00:29:23;6.43;;;2.05;;
49824;SDS011;35714;55.708;37.478;2022-08-01T00:31:48;7.93;;;2.00;;
49824;SDS011;35714;55.708;37.478;2022-08-01T00:34:14;6.22;;;2.20;;
49824;SDS011;35714;55.708;37.478;2022-08-01T00:36:39;5.43;;;2.08;;
49824;SDS011;35714;55.708;37.478;2022-08-01T00:39:05;5.95;;;2.00;;
49824;SDS011;35714;55.708;37.478;2022-08-01T00:41:39;5.18;;;1.75;;
49824;SDS011;35714;55.708;37.478;2022-08-01T00:44:05;6.85;;;2.05;;
49824;SDS011;35714;55.708;37.478;2022-08-01T00:46:31;5.32;;;1.83;;
49824;SDS011;35714;55.708;37.478;2022-08-01T00:48:57;13.10;;;2.38;;
49824;SDS011;35714;55.708;37.478;2022-08-01T00:51:22;9.23;;;2.67;;
49824;SDS011;35714;55.708;37.478;2022-08-01T00:53:49;6.68;;;2.17;;
49824;SDS011;35714;55.708;37.478;2022-08-01T00:56:15;8.38;;;2.70;;
49824;SDS011;35714;55.708;37.478;2022-08-01T00:58:40;8.23;;;3.03;;
49824;SDS011;35714;55.708;37.478;2022-08-01T01:01:06;9.45;;;3.90;;
49824;SDS011;35714;55.708;37.478;2022-08-01T01:03:31;5.00;;;2.40;;
49824;SDS011;35714;55.708;37.478;2022-08-01T01:08:46;7.13;;;2.35;;
49824;SDS011;35714;55.708;37.478;2022-08-01T01:11:16;6.35;;;2.13;;
49824;SDS011;35714;55.708;37.478;2022-08-01T01:13:46;5.85;;;2.40;;
49824;SDS011;35714;55.708;37.478;2022-08-01T01:16:15;7.68;;;2.22;;
49824;SDS011;35714;55.708;37.478;2022-08-01T01:18:43;8.07;;;2.17;;
49824;SDS011;35714;55.708;37.478;2022-08-01T01:31:13;6.10;;;1.93;;
49824;SDS011;35714;55.708;37.478;2022-08-01T01:33:39;5.15;;;2.05;;
49824;SDS011;35714;55.708;37.478;2022-08-01T01:36:07;5.93;;;2.03;;
49824;SDS011;35714;55.708;37.478;2022-08-01T01:38:34;6.97;;;2.70;;
49824;SDS011;35714;55.708;37.478;2022-08-01T01:41:02;4.53;;;1.77;;
49824;SDS011;35714;55.708;37.478;2022-08-01T01:43:29;7.72;;;2.60;;
49824;SDS011;35714;55.708;37.478;2022-08-01T01:45:55;7.35;;;2.00;;
49824;SDS011;35714;55.708;37.478;2022-08-01T01:48:21;7.18;;;2.03;;
49824;SDS011;35714;55.708;37.478;2022-08-01T01:50:48;6.40;;;2.10;;
49824;SDS011;35714;55.708;37.478;2022-08-01T01:53:15;5.07;;;2.17;;
49824;SDS011;35714;55.708;37.478;2022-08-01T01:55:41;7.68;;;2.17;;
49824;SDS011;35714;55.708;37.478;2022-08-01T01:58:08;9.32;;;2.80;;
49824;SDS011;35714;55.708;37.478;2022-08-01T02:00:35;6.57;;;2.10;;
49824;SDS011;35714;55.708;37.478;2022-08-01T02:03:02;6.32;;;2.40;;
49824;SDS011;35714;55.708;37.478;2022-08-01T02:05:29;12.27;;;2.63;;
49824;SDS011;35714;55.708;37.478;2022-08-01T02:07:55;5.38;;;2.25;;
49824;SDS011;35714;55.708;37.478;2022-08-01T02:10:22;4.57;;;2.20;;
49824;SDS011;35714;55.708;37.478;2022-08-01T02:12:48;6.15;;;2.40;;
49824;SDS011;35714;55.708;37.478;2022-08-01T02:15:15;6.50;;;1.98;;
49824;SDS011;35714;55.708;37.478;2022-08-01T02:17:42;4.63;;;1.90;;
49824;SDS011;35714;55.708;37.478;2022-08-01T02:20:09;5.05;;;2.00;;
49824;SDS011;35714;55.708;37.478;2022-08-01T02:22:42;5.95;;;2.13;;
49824;SDS011;35714;55.708;37.478;2022-08-01T02:25:18;8.73;;;3.15;;
49824;SDS011;35714;55.708;37.478;2022-08-01T02:30:13;5.63;;;2.13;;
49824;SDS011;35714;55.708;37.478;2022-08-01T02:32:53;5.50;;;2.33;;
49824;SDS011;35714;55.708;37.478;2022-08-01T02:35:26;7.32;;;2.17;;
49824;SDS011;35714;55.708;37.478;2022-08-01T02:37:52;10.10;;;2.22;;
49824;SDS011;35714;55.708;37.478;2022-08-01T02:40:18;8.98;;;2.50;;
49824;SDS011;35714;55.708;37.478;2022-08-01T02:42:46;8.52;;;2.08;;
49824;SDS011;35714;55.708;37.478;2022-08-01T02:45:13;9.40;;;2.72;;
49824;SDS011;35714;55.708;37.478;2022-08-01T02:47:39;7.72;;;2.70;;
49824;SDS011;35714;55.708;37.478;2022-08-01T02:50:05;11.30;;;3.42;;
49824;SDS011;35714;55.708;37.478;2022-08-01T02:52:33;9.27;;;3.40;;
49824;SDS011;35714;55.708;37.478;2022-08-01T02:54:59;5.88;;;2.70;;
49824;SDS011;35714;55.708;37.478;2022-08-01T02:57:25;10.00;;;3.00;;
49824;SDS011;35714;55.708;37.478;2022-08-01T02:59:51;13.15;;;3.45;;
49824;SDS011;35714;55.708;37.478;2022-08-01T03:02:18;8.13;;;2.92;;
49824;SDS011;35714;55.708;37.478;2022-08-01T03:04:44;6.97;;;2.90;;
49824;SDS011;35714;55.708;37.478;2022-08-01T03:07:10;6.35;;;2.47;;
49824;SDS011;35714;55.708;37.478;2022-08-01T03:09:40;8.23;;;2.67;;
49824;SDS011;35714;55.708;37.478;2022-08-01T03:12:10;6.28;;;3.15;;
49824;SDS011;35714;55.708;37.478;2022-08-01T03:14:37;5.40;;;2.50;;
49824;SDS011;35714;55.708;37.478;2022-08-01T03:17:03;9.80;;;3.00;;
49824;SDS011;35714;55.708;37.478;2022-08-01T03:19:29;8.75;;;3.05;;
49824;SDS011;35714;55.708;37.478;2022-08-01T03:21:55;7.70;;;3.60;;
49824;SDS011;35714;55.708;37.478;2022-08-01T03:24:23;9.82;;;3.30;;
49824;SDS011;35714;55.708;37.478;2022-08-01T03:26:50;6.20;;;3.17;;
49824;SDS011;35714;55.708;37.478;2022-08-01T03:29:18;7.97;;;3.45;;
49824;SDS011;35714;55.708;37.478;2022-08-01T03:31:45;6.93;;;2.80;;
49824;SDS011;35714;55.708;37.478;2022-08-01T03:34:11;9.35;;;3.28;;
49824;SDS011;35714;55.708;37.478;2022-08-01T03:36:40;11.43;;;2.95;;
49824;SDS011;35714;55.708;37.478;2022-08-01T03:39:08;7.45;;;3.25;;
49824;SDS011;35714;55.708;37.478;2022-08-01T03:41:37;5.60;;;2.78;;
49824;SDS011;35714;55.708;37.478;2022-08-01T03:44:05;7.88;;;3.05;;
49824;SDS011;35714;55.708;37.478;2022-08-01T03:46:33;8.73;;;3.17;;
49824;SDS011;35714;55.708;37.478;2022-08-01T03:49:00;7.45;;;3.53;;
49824;SDS011;35714;55.708;37.478;2022-08-01T03:51:28;8.57;;;2.88;;
49824;SDS011;35714;55.708;37.478;2022-08-01T03:53:54;7.70;;;2.70;;
49824;SDS011;35714;55.708;37.478;2022-08-01T03:56:20;11.18;;;3.67;;
49824;SDS011;35714;55.708;37.478;2022-08-01T03:58:46;10.23;;;3.38;;
49824;SDS011;35714;55.708;37.478;2022-08-01T04:01:12;8.45;;;3.03;;
49824;SDS011;35714;55.708;37.478;2022-08-01T04:03:38;9.48;;;2.88;;
49824;SDS011;35714;55.708;37.478;2022-08-01T04:06:07;6.78;;;3.25;;
49824;SDS011;35714;55.708;37.478;2022-08-01T04:08:37;7.15;;;3.00;;
49824;SDS011;35714;55.708;37.478;2022-08-01T04:11:03;6.32;;;2.88;;
49824;SDS011;35714;55.708;37.478;2022-08-01T04:13:30;5.90;;;2.80;;
49824;SDS011;35714;55.708;37.478;2022-08-01T04:15:55;5.97;;;2.88;;
49824;SDS011;35714;55.708;37.478;2022-08-01T04:18:21;9.27;;;2.90;;
49824;SDS011;35714;55.708;37.478;2022-08-01T04:20:46;7.00;;;2.72;;
49824;SDS011;35714;55.708;37.478;2022-08-01T04:23:12;6.75;;;3.50;;
49824;SDS011;35714;55.708;37.478;2022-08-01T04:25:38;5.65;;;2.63;;
49824;SDS011;35714;55.708;37.478;2022-08-01T04:28:04;10.45;;;2.53;;
49824;SDS011;35714;55.708;37.478;2022-08-01T04:30:33;7.63;;;2.97;;
49824;SDS011;35714;55.708;37.478;2022-08-01T04:33:00;6.45;;;2.92;;
49824;SDS011;35714;55.708;37.478;2022-08-01T04:35:26;9.60;;;3.28;;
49824;SDS011;35714;55.708;37.478;2022-08-01T04:37:52;5.85;;;2.78;;
49824;SDS011;35714;55.708;37.478;2022-08-01T04:40:18;6.65;;;2.83;;
49824;SDS011;35714;55.708;37.478;2022-08-01T04:42:47;7.07;;;3.17;;
49824;SDS011;35714;55.708;37.478;2022-08-01T04:45:14;7.30;;;3.10;;
49824;SDS011;35714;55.708;37.478;2022-08-01T04:47:40;8.68;;;3.35;;
49824;SDS011;35714;55.708;37.478;2022-08-01T04:50:06;7.82;;;3.15;;
49824;SDS011;35714;55.708;37.478;2022-08-01T04:52:35;7.10;;;3.45;;
49824;SDS011;35714;55.708;37.478;2022-08-01T04:55:02;8.20;;;5.55;;
49824;SDS011;35714;55.708;37.478;2022-08-01T04:57:28;10.18;;;3.75;;
49824;SDS011;35714;55.708;37.478;2022-08-01T04:59:54;8.25;;;3.45;;
49824;SDS011;35714;55.708;37.478;2022-08-01T05:02:22;9.93;;;4.50;;
49824;SDS011;35714;55.708;37.478;2022-08-01T05:04:48;9.60;;;4.78;;
49824;SDS011;35714;55.708;37.478;2022-08-01T05:07:13;7.25;;;3.22;;
49824;SDS011;35714;55.708;37.478;2022-08-01T05:09:39;5.97;;;3.10;;
49824;SDS011;35714;55.708;37.478;2022-08-01T05:12:20;8.90;;;3.20;;
49824;SDS011;35714;55.708;37.478;2022-08-01T05:14:46;4.97;;;2.40;;
49824;SDS011;35714;55.708;37.478;2022-08-01T05:17:11;5.30;;;2.55;;
49824;SDS011;35714;55.708;37.478;2022-08-01T05:19:37;6.25;;;2.33;;
49824;SDS011;35714;55.708;37.478;2022-08-01T05:22:04;5.85;;;2.08;;
49824;SDS011;35714;55.708;37.478;2022-08-01T05:24:31;10.77;;;2.10;;
49824;SDS011;35714;55.708;37.478;2022-08-01T05:26:58;6.30;;;1.88;;
49824;SDS011;35714;55.708;37.478;2022-08-01T05:29:24;5.13;;;2.10;;
49824;SDS011;35714;55.708;37.478;2022-08-01T05:31:50;4.82;;;1.70;;
49824;SDS011;35714;55.708;37.478;2022-08-01T05:34:15;3.85;;;1.65;;
49824;SDS011;35714;55.708;37.478;2022-08-01T05:36:41;7.78;;;1.63;;
49824;SDS011;35714;55.708;37.478;2022-08-01T05:39:07;6.70;;;1.60;;
49824;SDS011;35714;55.708;37.478;2022-08-01T05:41:32;3.17;;;1.35;;
49824;SDS011;35714;55.708;37.478;2022-08-01T05:43:58;7.15;;;3.10;;
49824;SDS011;35714;55.708;37.478;2022-08-01T05:46:23;3.78;;;1.52;;
49824;SDS011;35714;55.708;37.478;2022-08-01T05:48:49;6.97;;;1.73;;
49824;SDS011;35714;55.708;37.478;2022-08-01T05:51:14;3.88;;;1.73;;
49824;SDS011;35714;55.708;37.478;2022-08-01T05:53:40;3.70;;;1.30;;
49824;SDS011;35714;55.708;37.478;2022-08-01T05:56:05;3.80;;;1.45;;
49824;SDS011;35714;55.708;37.478;2022-08-01T05:58:31;5.93;;;1.45;;
49824;SDS011;35714;55.708;37.478;2022-08-01T06:00:57;4.78;;;1.50;;
49824;SDS011;35714;55.708;37.478;2022-08-01T06:03:22;5.45;;;1.65;;
49824;SDS011;35714;55.708;37.478;2022-08-01T06:05:48;4.32;;;1.60;;
49824;SDS011;35714;55.708;37.478;2022-08-01T06:08:14;3.40;;;1.08;;
49824;SDS011;35714;55.708;37.478;2022-08-01T06:10:39;4.30;;;1.20;;
49824;SDS011;35714;55.708;37.478;2022-08-01T06:13:05;4.60;;;1.20;;
49824;SDS011;35714;55.708;37.478;2022-08-01T06:15:31;4.40;;;1.20;;
49824;SDS011;35714;55.708;37.478;2022-08-01T06:17:56;6.95;;;1.13;;
49824;SDS011;35714;55.708;37.478;2022-08-01T06:20:22;4.28;;;1.42;;
49824;SDS011;35714;55.708;37.478;2022-08-01T06:22:47;5.35;;;1.27;;
49824;SDS011;35714;55.708;37.478;2022-08-01T06:25:13;4.68;;;1.40;;
49824;SDS011;35714;55.708;37.478;2022-08-01T06:27:39;5.30;;;1.40;;
49824;SDS011;35714;55.708;37.478;2022-08-01T06:30:05;7.05;;;1.60;;
49824;SDS011;35714;55.708;37.478;2022-08-01T06:32:32;3.95;;;1.40;;
49824;SDS011;35714;55.708;37.478;2022-08-01T06:34:58;5.20;;;1.40;;
49824;SDS011;35714;55.708;37.478;2022-08-01T06:37:27;4.60;;;1.23;;
49824;SDS011;35714;55.708;37.478;2022-08-01T06:39:53;10.90;;;1.55;;
49824;SDS011;35714;55.708;37.478;2022-08-01T06:42:19;5.68;;;1.38;;
49824;SDS011;35714;55.708;37.478;2022-08-01T06:44:44;4.35;;;1.45;;
49824;SDS011;35714;55.708;37.478;2022-08-01T06:47:10;4.63;;;1.38;;
49824;SDS011;35714;55.708;37.478;2022-08-01T06:49:35;3.45;;;1.10;;
49824;SDS011;35714;55.708;37.478;2022-08-01T06:52:01;5.20;;;1.38;;
49824;SDS011;35714;55.708;37.478;2022-08-01T06:54:28;4.68;;;1.60;;
49824;SDS011;35714;55.708;37.478;2022-08-01T06:56:53;5.57;;;1.55;;
49824;SDS011;35714;55.708;37.478;2022-08-01T06:59:19;6.10;;;1.35;;
49824;SDS011;35714;55.708;37.478;2022-08-01T07:01:45;4.68;;;1.70;;
49824;SDS011;35714;55.708;37.478;2022-08-01T07:04:10;4.55;;;1.20;;
49824;SDS011;35714;55.708;37.478;2022-08-01T07:06:36;3.67;;;1.30;;
49824;SDS011;35714;55.708;37.478;2022-08-01T07:09:02;5.32;;;1.65;;
49824;SDS011;35714;55.708;37.478;2022-08-01T07:11:28;5.63;;;1.70;;
49824;SDS011;35714;55.708;37.478;2022-08-01T07:13:54;3.83;;;1.52;;
49824;SDS011;35714;55.708;37.478;2022-08-01T07:16:19;3.90;;;1.90;;
49824;SDS011;35714;55.708;37.478;2022-08-01T07:18:45;6.18;;;1.85;;
49824;SDS011;35714;55.708;37.478;2022-08-01T07:21:10;5.10;;;1.63;;
49824;SDS011;35714;55.708;37.478;2022-08-01T07:23:36;6.20;;;1.83;;
49824;SDS011;35714;55.708;37.478;2022-08-01T07:26:02;5.63;;;3.05;;
49824;SDS011;35714;55.708;37.478;2022-08-01T07:28:28;7.35;;;3.15;;
49824;SDS011;35714;55.708;37.478;2022-08-01T07:30:53;6.30;;;3.20;;
49824;SDS011;35714;55.708;37.478;2022-08-01T07:33:19;7.30;;;3.90;;
49824;SDS011;35714;55.708;37.478;2022-08-01T07:35:44;8.52;;;4.18;;
49824;SDS011;35714;55.708;37.478;2022-08-01T07:38:10;6.03;;;2.70;;
49824;SDS011;35714;55.708;37.478;2022-08-01T07:40:36;6.50;;;2.92;;
49824;SDS011;35714;55.708;37.478;2022-08-01T07:43:02;7.03;;;2.60;;
49824;SDS011;35714;55.708;37.478;2022-08-01T07:45:27;7.97;;;2.72;;
49824;SDS011;35714;55.708;37.478;2022-08-01T07:47:53;6.45;;;2.03;;
49824;SDS011;35714;55.708;37.478;2022-08-01T07:50:19;4.65;;;1.88;;
49824;SDS011;35714;55.708;37.478;2022-08-01T07:52:44;6.25;;;1.90;;
49824;SDS011;35714;55.708;37.478;2022-08-01T07:55:10;5.78;;;1.70;;
49824;SDS011;35714;55.708;37.478;2022-08-01T07:57:36;5.82;;;2.00;;
49824;SDS011;35714;55.708;37.478;2022-08-01T08:00:03;12.07;;;1.70;;
49824;SDS011;35714;55.708;37.478;2022-08-01T08:02:29;6.60;;;2.05;;
49824;SDS011;35714;55.708;37.478;2022-08-01T08:04:55;5.63;;;2.00;;
49824;SDS011;35714;55.708;37.478;2022-08-01T08:07:20;5.95;;;1.90;;
49824;SDS011;35714;55.708;37.478;2022-08-01T08:09:46;5.43;;;1.65;;
49824;SDS011;35714;55.708;37.478;2022-08-01T08:12:11;6.05;;;1.58;;
49824;SDS011;35714;55.708;37.478;2022-08-01T08:14:37;4.32;;;1.77;;
49824;SDS011;35714;55.708;37.478;2022-08-01T08:17:03;5.63;;;1.67;;
49824;SDS011;35714;55.708;37.478;2022-08-01T08:19:29;5.45;;;1.33;;
49824;SDS011;35714;55.708;37.478;2022-08-01T08:21:56;5.35;;;1.92;;
49824;SDS011;35714;55.708;37.478;2022-08-01T08:24:22;4.47;;;1.48;;
49824;SDS011;35714;55.708;37.478;2022-08-01T08:26:52;3.75;;;1.50;;
49824;SDS011;35714;55.708;37.478;2022-08-01T08:29:19;3.03;;;1.30;;
49824;SDS011;35714;55.708;37.478;2022-08-01T08:31:45;5.85;;;1.17;;
49824;SDS011;35714;55.708;37.478;2022-08-01T08:34:11;5.57;;;1.27;;
49824;SDS011;35714;55.708;37.478;2022-08-01T08:36:36;5.88;;;1.52;;
49824;SDS011;35714;55.708;37.478;2022-08-01T08:39:02;4.70;;;1.77;;
49824;SDS011;35714;55.708;37.478;2022-08-01T08:41:34;4.32;;;1.45;;
49824;SDS011;35714;55.708;37.478;2022-08-01T08:44:01;4.28;;;1.42;;
49824;SDS011;35714;55.708;37.478;2022-08-01T08:46:27;5.85;;;1.42;;
49824;SDS011;35714;55.708;37.478;2022-08-01T08:48:52;3.85;;;1.45;;
49824;SDS011;35714;55.708;37.478;2022-08-01T08:51:18;4.45;;;1.77;;
49824;SDS011;35714;55.708;37.478;2022-08-01T08:53:44;6.38;;;1.90;;
49824;SDS011;35714;55.708;37.478;2022-08-01T08:56:11;3.55;;;1.30;;
49824;SDS011;35714;55.708;37.478;2022-08-01T08:58:37;2.40;;;1.00;;
49824;SDS011;35714;55.708;37.478;2022-08-01T09:01:06;5.35;;;1.13;;
49824;SDS011;35714;55.708;37.478;2022-08-01T09:03:34;3.88;;;1.52;;
49824;SDS011;35714;55.708;37.478;2022-08-01T09:05:59;3.40;;;1.20;;
49824;SDS011;35714;55.708;37.478;2022-08-01T09:08:25;5.55;;;1.20;;
49824;SDS011;35714;55.708;37.478;2022-08-01T09:10:50;2.95;;;1.15;;
49824;SDS011;35714;55.708;37.478;2022-08-01T09:13:16;4.05;;;1.67;;
49824;SDS011;35714;55.708;37.478;2022-08-01T09:15:42;2.60;;;1.10;;
49824;SDS011;35714;55.708;37.478;2022-08-01T09:18:10;2.63;;;1.00;;
49824;SDS011;35714;55.708;37.478;2022-08-01T09:20:50;2.97;;;1.00;;
49824;SDS011;35714;55.708;37.478;2022-08-01T09:23:30;2.75;;;0.98;;
49824;SDS011;35714;55.708;37.478;2022-08-01T09:25:56;2.33;;;1.00;;
49824;SDS011;35714;55.708;37.478;2022-08-01T09:28:27;2.70;;;1.20;;
49824;SDS011;35714;55.708;37.478;2022-08-01T09:30:52;2.53;;;0.90;;
49824;SDS011;35714;55.708;37.478;2022-08-01T09:33:18;3.35;;;1.10;;
49824;SDS011;35714;55.708;37.478;2022-08-01T09:35:43;3.53;;;1.20;;
49824;SDS011;35714;55.708;37.478;2022-08-01T09:38:14;2.35;;;0.88;;
49824;SDS011;35714;55.708;37.478;2022-08-01T09:40:47;1.98;;;0.85;;
49824;SDS011;35714;55.708;37.478;2022-08-01T09:43:12;3.83;;;1.00;;
49824;SDS011;35714;55.708;37.478;2022-08-01T09:45:38;3.17;;;1.10;;
49824;SDS011;35714;55.708;37.478;2022-08-01T09:48:10;4.28;;;1.30;;
49824;SDS011;35714;55.708;37.478;2022-08-01T09:50:41;4.38;;;1.50;;
49824;SDS011;35714;55.708;37.478;2022-08-01T09:53:08;4.50;;;1.75;;
49824;SDS011;35714;55.708;37.478;2022-08-01T09:55:34;4.47;;;1.40;;
49824;SDS011;35714;55.708;37.478;2022-08-01T09:57:59;3.35;;;1.13;;
49824;SDS011;35714;55.708;37.478;2022-08-01T10:00:26;4.57;;;0.98;;
49824;SDS011;35714;55.708;37.478;2022-08-01T10:02:52;3.15;;;1.25;;
49824;SDS011;35714;55.708;37.478;2022-08-01T10:05:17;4.85;;;1.20;;
49824;SDS011;35714;55.708;37.478;2022-08-01T10:10:40;3.53;;;1.50;;
49824;SDS011;35714;55.708;37.478;2022-08-01T10:13:05;4.85;;;1.30;;
49824;SDS011;35714;55.708;37.478;2022-08-01T10:15:31;3.85;;;1.10;;
49824;SDS011;35714;55.708;37.478;2022-08-01T10:17:58;5.18;;;1.30;;
49824;SDS011;35714;55.708;37.478;2022-08-01T10:20:25;2.90;;;1.00;;
49824;SDS011;35714;55.708;37.478;2022-08-01T10:22:51;3.53;;;1.30;;
49824;SDS011;35714;55.708;37.478;2022-08-01T10:25:17;5.88;;;1.38;;
49824;SDS011;35714;55.708;37.478;2022-08-01T10:27:43;2.97;;;1.02;;
49824;SDS011;35714;55.708;37.478;2022-08-01T10:30:11;3.20;;;1.45;;
49824;SDS011;35714;55.708;37.478;2022-08-01T10:32:36;2.30;;;0.90;;
49824;SDS011;35714;55.708;37.478;2022-08-01T10:35:05;5.25;;;1.02;;
49824;SDS011;35714;55.708;37.478;2022-08-01T10:37:32;3.65;;;1.20;;
49824;SDS011;35714;55.708;37.478;2022-08-01T10:39:58;6.40;;;1.30;;
49824;SDS011;35714;55.708;37.478;2022-08-01T10:42:24;3.25;;;1.45;;
49824;SDS011;35714;55.708;37.478;2022-08-01T10:44:50;5.53;;;1.20;;
49824;SDS011;35714;55.708;37.478;2022-08-01T10:47:21;8.80;;;1.50;;
49824;SDS011;35714;55.708;37.478;2022-08-01T10:50:07;2.80;;;1.02;;
49824;SDS011;35714;55.708;37.478;2022-08-01T10:52:36;4.05;;;1.23;;
49824;SDS011;35714;55.708;37.478;2022-08-01T10:55:06;2.25;;;1.02;;
49824;SDS011;35714;55.708;37.478;2022-08-01T10:57:41;2.67;;;1.23;;
49824;SDS011;35714;55.708;37.478;2022-08-01T11:00:08;3.47;;;1.30;;
49824;SDS011;35714;55.708;37.478;2022-08-01T11:02:33;10.02;;;1.48;;
49824;SDS011;35714;55.708;37.478;2022-08-01T11:05:04;3.38;;;1.65;;
49824;SDS011;35714;55.708;37.478;2022-08-01T11:08:20;5.60;;;1.45;;
49824;SDS011;35714;55.708;37.478;2022-08-01T11:12:49;4.10;;;1.75;;
49824;SDS011;35714;55.708;37.478;2022-08-01T11:17:44;3.80;;;1.80;;
49824;SDS011;35714;55.708;37.478;2022-08-01T11:20:16;3.70;;;1.70;;
49824;SDS011;35714;55.708;37.478;2022-08-01T11:30:51;2.80;;;1.10;;
49824;SDS011;35714;55.708;37.478;2022-08-01T11:33:18;3.10;;;1.10;;
49824;SDS011;35714;55.708;37.478;2022-08-01T11:38:28;5.20;;;1.60;;
49824;SDS011;35714;55.708;37.478;2022-08-01T11:46:19;3.00;;;1.08;;
49824;SDS011;35714;55.708;37.478;2022-08-01T11:48:45;3.30;;;1.23;;
49824;SDS011;35714;55.708;37.478;2022-08-01T11:51:32;2.25;;;1.00;;
49824;SDS011;35714;55.708;37.478;2022-08-01T11:53:57;3.03;;;1.15;;
49824;SDS011;35714;55.708;37.478;2022-08-01T11:56:24;3.70;;;1.10;;
49824;SDS011;35714;55.708;37.478;2022-08-01T11:58:49;3.65;;;1.15;;
49824;SDS011;35714;55.708;37.478;2022-08-01T12:01:23;4.95;;;1.20;;
49824;SDS011;35714;55.708;37.478;2022-08-01T12:03:54;2.50;;;1.13;;
49824;SDS011;35714;55.708;37.478;2022-08-01T12:06:27;2.70;;;1.05;;
49824;SDS011;35714;55.708;37.478;2022-08-01T12:08:53;4.07;;;1.15;;
49824;SDS011;35714;55.708;37.478;2022-08-01T12:11:18;6.18;;;1.63;;
49824;SDS011;35714;55.708;37.478;2022-08-01T12:13:44;5.82;;;1.27;;
49824;SDS011;35714;55.708;37.478;2022-08-01T12:16:10;3.10;;;1.20;;
49824;SDS011;35714;55.708;37.478;2022-08-01T12:18:40;2.78;;;1.17;;
49824;SDS011;35714;55.708;37.478;2022-08-01T12:21:05;3.30;;;1.20;;
49824;SDS011;35714;55.708;37.478;2022-08-01T12:23:31;4.43;;;1.10;;
49824;SDS011;35714;55.708;37.478;2022-08-01T12:25:56;3.70;;;1.42;;
49824;SDS011;35714;55.708;37.478;2022-08-01T12:28:22;4.18;;;1.38;;
49824;SDS011;35714;55.708;37.478;2022-08-01T12:30:48;2.95;;;1.63;;
49824;SDS011;35714;55.708;37.478;2022-08-01T12:33:16;3.10;;;1.48;;
49824;SDS011;35714;55.708;37.478;2022-08-01T12:35:42;3.17;;;1.30;;
49824;SDS011;35714;55.708;37.478;2022-08-01T12:38:15;2.75;;;1.23;;
49824;SDS011;35714;55.708;37.478;2022-08-01T12:40:41;2.30;;;1.00;;
49824;SDS011;35714;55.708;37.478;2022-08-01T12:43:08;3.95;;;1.30;;
49824;SDS011;35714;55.708;37.478;2022-08-01T12:45:44;4.25;;;1.42;;
49824;SDS011;35714;55.708;37.478;2022-08-01T12:48:13;7.13;;;1.45;;
49824;SDS011;35714;55.708;37.478;2022-08-01T12:50:41;2.55;;;1.00;;
49824;SDS011;35714;55.708;37.478;2022-08-01T12:53:12;6.18;;;1.00;;
49824;SDS011;35714;55.708;37.478;2022-08-01T12:55:45;4.78;;;1.48;;
49824;SDS011;35714;55.708;37.478;2022-08-01T12:58:11;4.55;;;1.40;;
49824;SDS011;35714;55.708;37.478;2022-08-01T13:00:38;4.10;;;1.25;;
49824;SDS011;35714;55.708;37.478;2022-08-01T13:03:06;2.80;;;1.30;;
49824;SDS011;35714;55.708;37.478;2022-08-01T13:05:48;3.30;;;1.10;;
49824;SDS011;35714;55.708;37.478;2022-08-01T13:08:15;4.40;;;1.30;;
49824;SDS011;35714;55.708;37.478;2022-08-01T13:10:41;5.97;;;1.23;;
49824;SDS011;35714;55.708;37.478;2022-08-01T13:13:07;3.22;;;1.00;;
49824;SDS011;35714;55.708;37.478;2022-08-01T13:15:34;5.95;;;1.52;;
49824;SDS011;35714;55.708;37.478;2022-08-01T13:18:01;3.70;;;1.30;;
49824;SDS011;35714;55.708;37.478;2022-08-01T13:20:31;2.70;;;1.33;;
49824;SDS011;35714;55.708;37.478;2022-08-01T13:23:09;2.92;;;1.40;;
49824;SDS011;35714;55.708;37.478;2022-08-01T13:25:46;5.82;;;1.30;;
49824;SDS011;35714;55.708;37.478;2022-08-01T13:28:18;3.72;;;1.20;;
49824;SDS011;35714;55.708;37.478;2022-08-01T13:30:55;5.88;;;1.55;;
49824;SDS011;35714;55.708;37.478;2022-08-01T13:33:26;5.60;;;1.50;;
49824;SDS011;35714;55.708;37.478;2022-08-01T13:35:55;3.35;;;1.52;;
49824;SDS011;35714;55.708;37.478;2022-08-01T13:38:21;3.97;;;1.40;;
49824;SDS011;35714;55.708;37.478;2022-08-01T13:41:07;4.20;;;1.27;;
49824;SDS011;35714;55.708;37.478;2022-08-01T13:43:33;2.17;;;1.15;;
49824;SDS011;35714;55.708;37.478;2022-08-01T13:46:00;4.50;;;1.10;;
49824;SDS011;35714;55.708;37.478;2022-08-01T13:48:28;3.45;;;1.50;;
49824;SDS011;35714;55.708;37.478;2022-08-01T13:50:54;3.90;;;1.33;;
49824;SDS011;35714;55.708;37.478;2022-08-01T13:53:20;6.25;;;1.63;;
49824;SDS011;35714;55.708;37.478;2022-08-01T13:55:45;5.57;;;1.50;;
49824;SDS011;35714;55.708;37.478;2022-08-01T13:58:11;3.55;;;1.17;;
49824;SDS011;35714;55.708;37.478;2022-08-01T14:00:36;2.97;;;1.20;;
49824;SDS011;35714;55.708;37.478;2022-08-01T14:03:02;3.78;;;1.75;;
49824;SDS011;35714;55.708;37.478;2022-08-01T14:05:28;3.13;;;1.30;;
49824;SDS011;35714;55.708;37.478;2022-08-01T14:07:54;4.95;;;2.90;;
49824;SDS011;35714;55.708;37.478;2022-08-01T14:10:19;4.15;;;1.38;;
49824;SDS011;35714;55.708;37.478;2022-08-01T14:12:45;3.17;;;1.38;;
49824;SDS011;35714;55.708;37.478;2022-08-01T14:15:10;5.22;;;1.33;;
49824;SDS011;35714;55.708;37.478;2022-08-01T14:17:36;4.68;;;1.20;;
49824;SDS011;35714;55.708;37.478;2022-08-01T14:20:02;2.85;;;1.50;;
49824;SDS011;35714;55.708;37.478;2022-08-01T14:22:31;3.15;;;1.20;;
49824;SDS011;35714;55.708;37.478;2022-08-01T14:24:56;4.47;;;1.80;;
49824;SDS011;35714;55.708;37.478;2022-08-01T14:27:22;4.22;;;1.70;;
49824;SDS011;35714;55.708;37.478;2022-08-01T14:29:47;3.97;;;1.38;;
49824;SDS011;35714;55.708;37.478;2022-08-01T14:32:13;3.78;;;1.17;;
49824;SDS011;35714;55.708;37.478;2022-08-01T14:34:39;3.92;;;1.40;;
49824;SDS011;35714;55.708;37.478;2022-08-01T14:37:04;4.57;;;1.15;;
49824;SDS011;35714;55.708;37.478;2022-08-01T14:39:30;3.25;;;1.30;;
49824;SDS011;35714;55.708;37.478;2022-08-01T14:41:55;4.35;;;1.40;;
49824;SDS011;35714;55.708;37.478;2022-08-01T14:44:21;4.10;;;1.38;;
49824;SDS011;35714;55.708;37.478;2022-08-01T14:46:46;2.92;;;1.10;;
49824;SDS011;35714;55.708;37.478;2022-08-01T14:49:13;3.65;;;1.40;;
49824;SDS011;35714;55.708;37.478;2022-08-01T14:51:39;3.45;;;1.42;;
49824;SDS011;35714;55.708;37.478;2022-08-01T14:54:05;5.22;;;1.55;;
49824;SDS011;35714;55.708;37.478;2022-08-01T14:56:30;3.63;;;1.50;;
49824;SDS011;35714;55.708;37.478;2022-08-01T14:58:56;3.47;;;1.30;;
49824;SDS011;35714;55.708;37.478;2022-08-01T15:01:21;4.10;;;1.40;;
49824;SDS011;35714;55.708;37.478;2022-08-01T15:03:47;4.68;;;1.40;;
49824;SDS011;35714;55.708;37.478;2022-08-01T15:06:15;3.70;;;1.33;;
49824;SDS011;35714;55.708;37.478;2022-08-01T15:08:40;4.93;;;1.55;;
49824;SDS011;35714;55.708;37.478;2022-08-01T15:11:06;4.25;;;2.03;;